Time;durP1;ratioP1;P1;durP2;ratioP2;P2;SDS_P1;SDS_P2;PMS_P1;PMS_P2;Temp;Humidity;BMP_temperature;BMP_pressure;BME280_temperature;BME280_humidity;BME280_pressure;Samples;Min_cycle;Max_cycle;Signal;HPM_P1;HPM_P2
2023/09/11 00:01:32;;;;;;;28.70;17.75;;;;;;;;;;5056172;28;20057;-78
2023/09/11 00:03:58;;;;;;;28.17;16.85;;;;;;;;;;5056296;28;20167;-78
2023/09/11 00:06:28;;;;;;;27.33;17.15;;;;;;;;;;5055855;28;20036;-78
2023/09/11 00:08:54;;;;;;;26.00;17.65;;;;;;;;;;5055963;28;20048;-78
2023/09/11 00:11:20;;;;;;;27.20;16.73;;;;;;;;;;5056329;28;20159;-78
2023/09/11 00:13:46;;;;;;;27.48;17.63;;;;;;;;;;5055789;28;20063;-78
2023/09/11 00:16:12;;;;;;;28.85;17.73;;;;;;;;;;5056050;28;20491;-78
2023/09/11 00:18:38;;;;;;;25.20;18.08;;;;;;;;;;5055744;28;20017;-78
2023/09/11 00:21:04;;;;;;;31.45;18.52;;;;;;;;;;5055510;28;20025;-78
2023/09/11 00:23:30;;;;;;;24.98;17.40;;;;;;;;;;5055666;28;20023;-78
2023/09/11 00:25:56;;;;;;;26.38;17.92;;;;;;;;;;5056091;28;20033;-78
2023/09/11 00:28:22;;;;;;;23.25;17.80;;;;;;;;;;5055635;28;20031;-78
2023/09/11 00:30:48;;;;;;;31.42;19.42;;;;;;;;;;5055447;28;20075;-78
2023/09/11 00:33:15;;;;;;;26.40;18.75;;;;;;;;;;5055420;28;20052;-78
2023/09/11 00:35:44;;;;;;;26.20;18.27;;;;;;;;;;5055646;28;20040;-78
2023/09/11 00:38:11;;;;;;;30.95;19.17;;;;;;;;;;5055631;28;20608;-78
2023/09/11 00:40:37;;;;;;;26.95;18.02;;;;;;;;;;5055736;28;20087;-78
2023/09/11 00:43:03;;;;;;;30.23;20.10;;;;;;;;;;5055468;28;20041;-78
2023/09/11 00:45:29;;;;;;;30.85;19.35;;;;;;;;;;5055569;28;20061;-78
2023/09/11 00:47:55;;;;;;;30.23;19.92;;;;;;;;;;5055268;28;20025;-78
2023/09/11 00:50:22;;;;;;;25.55;19.35;;;;;;;;;;5055209;28;20463;-78
2023/09/11 00:52:49;;;;;;;34.10;19.77;;;;;;;;;;5055220;28;20063;-78
2023/09/11 00:55:15;;;;;;;24.90;19.08;;;;;;;;;;5054842;28;20045;-78
2023/09/11 00:57:42;;;;;;;28.02;19.50;;;;;;;;;;5055158;28;20029;-78
2023/09/11 01:00:09;;;;;;;29.70;18.80;;;;;;;;;;5054229;28;20049;-78
2023/09/11 01:02:35;;;;;;;27.73;19.95;;;;;;;;;;5054885;28;20024;-78
2023/09/11 01:05:02;;;;;;;28.48;20.05;;;;;;;;;;5054920;28;20375;-78
2023/09/11 01:07:29;;;;;;;28.08;19.65;;;;;;;;;;5054950;28;20422;-78
2023/09/11 01:09:55;;;;;;;31.85;21.27;;;;;;;;;;5055071;28;20027;-78
2023/09/11 01:12:21;;;;;;;28.45;19.45;;;;;;;;;;5054755;28;20032;-78
2023/09/11 01:14:48;;;;;;;28.25;20.25;;;;;;;;;;5036772;28;20021;-78
2023/09/11 01:17:26;;;;;;;27.50;20.02;;;;;;;;;;5054626;28;20111;-78
2023/09/11 01:20:08;;;;;;;28.45;21.08;;;;;;;;;;5054494;28;20028;-78
2023/09/11 01:22:54;;;;;;;28.30;19.50;;;;;;;;;;5054564;28;20095;-78
2023/09/11 01:25:39;;;;;;;27.38;19.92;;;;;;;;;;5054350;28;20185;-78
2023/09/11 01:28:23;;;;;;;27.25;19.83;;;;;;;;;;5054364;28;20029;-77
2023/09/11 01:30:50;;;;;;;31.27;19.35;;;;;;;;;;5054297;28;20036;-77
2023/09/11 01:33:16;;;;;;;27.85;19.27;;;;;;;;;;5054356;28;20028;-77
2023/09/11 01:35:42;;;;;;;27.75;20.27;;;;;;;;;;5054242;28;20025;-78
2023/09/11 01:38:09;;;;;;;25.83;18.95;;;;;;;;;;5054192;28;20135;-78
2023/09/11 01:40:36;;;;;;;26.55;18.85;;;;;;;;;;5054104;28;20099;-78
2023/09/11 01:43:03;;;;;;;25.17;17.60;;;;;;;;;;5054410;28;20439;-78
2023/09/11 01:45:31;;;;;;;28.45;19.90;;;;;;;;;;5053920;28;20025;-78
2023/09/11 01:47:58;;;;;;;26.23;19.33;;;;;;;;;;5054251;28;20078;-78
2023/09/11 01:50:25;;;;;;;28.20;19.30;;;;;;;;;;5053914;28;20033;-78
2023/09/11 01:52:52;;;;;;;28.58;20.00;;;;;;;;;;5053963;28;20028;-78
2023/09/11 01:55:18;;;;;;;28.42;20.27;;;;;;;;;;5053522;28;20049;-77
2023/09/11 01:57:44;;;;;;;27.88;19.85;;;;;;;;;;5053860;28;20033;-78
2023/09/11 02:00:11;;;;;;;29.27;19.75;;;;;;;;;;5054011;28;20725;-78
2023/09/11 02:02:37;;;;;;;29.45;19.80;;;;;;;;;;5053594;28;20078;-78
2023/09/11 02:05:03;;;;;;;23.92;19.80;;;;;;;;;;5053599;28;20451;-78
2023/09/11 02:07:29;;;;;;;26.60;19.60;;;;;;;;;;5053684;28;20079;-78
2023/09/11 02:09:55;;;;;;;25.50;20.13;;;;;;;;;;5053380;28;20025;-78
2023/09/11 02:12:22;;;;;;;28.00;19.98;;;;;;;;;;5052443;28;20029;-77
2023/09/11 02:14:50;;;;;;;26.02;18.95;;;;;;;;;;5053649;28;20456;-78
2023/09/11 02:17:16;;;;;;;27.80;19.85;;;;;;;;;;5053419;28;20021;-78
2023/09/11 02:19:42;;;;;;;28.15;20.38;;;;;;;;;;5053503;28;20032;-78
2023/09/11 02:22:08;;;;;;;25.65;19.52;;;;;;;;;;5053328;28;20371;-77
2023/09/11 02:24:34;;;;;;;30.67;19.33;;;;;;;;;;5053230;28;20061;-78
2023/09/11 02:27:00;;;;;;;26.95;19.27;;;;;;;;;;5052926;28;20111;-78
2023/09/11 02:29:26;;;;;;;29.13;20.50;;;;;;;;;;5053179;28;20032;-78
2023/09/11 02:31:52;;;;;;;28.85;20.02;;;;;;;;;;5053147;28;20074;-78
2023/09/11 02:34:18;;;;;;;26.02;19.95;;;;;;;;;;5053198;28;20124;-77
2023/09/11 02:36:44;;;;;;;25.70;19.92;;;;;;;;;;5053016;28;20112;-77
2023/09/11 02:39:10;;;;;;;26.95;20.73;;;;;;;;;;5052957;28;20544;-78
2023/09/11 02:41:36;;;;;;;29.52;20.80;;;;;;;;;;5053011;28;20029;-77
2023/09/11 02:44:03;;;;;;;26.95;19.70;;;;;;;;;;5052905;28;20021;-78
2023/09/11 02:46:29;;;;;;;28.45;22.00;;;;;;;;;;5053197;28;20029;-77
2023/09/11 02:48:55;;;;;;;26.27;21.30;;;;;;;;;;5052866;28;20037;-78
2023/09/11 02:51:21;;;;;;;25.77;20.13;;;;;;;;;;5053044;28;20103;-78
2023/09/11 02:53:47;;;;;;;28.73;20.92;;;;;;;;;;5052853;28;20103;-77
2023/09/11 02:56:13;;;;;;;29.35;20.58;;;;;;;;;;5053041;28;20064;-77
2023/09/11 02:58:39;;;;;;;25.33;20.83;;;;;;;;;;5052926;28;20044;-77
2023/09/11 03:01:06;;;;;;;31.98;21.08;;;;;;;;;;5052543;28;20550;-78
2023/09/11 03:03:32;;;;;;;29.23;21.38;;;;;;;;;;5052743;28;20040;-77
2023/09/11 03:05:59;;;;;;;27.38;21.40;;;;;;;;;;5052834;28;20033;-78
2023/09/11 03:08:25;;;;;;;30.50;21.00;;;;;;;;;;5052526;28;20072;-78
2023/09/11 03:10:51;;;;;;;27.52;20.85;;;;;;;;;;5052578;28;20424;-77
2023/09/11 03:13:18;;;;;;;28.23;21.13;;;;;;;;;;5052466;28;20365;-77
2023/09/11 03:15:44;;;;;;;30.02;20.77;;;;;;;;;;5052693;28;20029;-77
2023/09/11 03:18:10;;;;;;;32.22;21.88;;;;;;;;;;5052357;28;20029;-78
2023/09/11 03:20:36;;;;;;;33.05;21.95;;;;;;;;;;5052400;28;20502;-78
2023/09/11 03:23:02;;;;;;;29.33;20.25;;;;;;;;;;5052128;28;20459;-78
2023/09/11 03:25:29;;;;;;;29.25;21.10;;;;;;;;;;5052449;28;20024;-78
2023/09/11 03:27:55;;;;;;;27.88;21.58;;;;;;;;;;5052615;28;20435;-77
2023/09/11 03:30:21;;;;;;;26.15;21.92;;;;;;;;;;5052234;28;20028;-78
2023/09/11 03:32:47;;;;;;;27.00;22.27;;;;;;;;;;5052289;28;20032;-77
2023/09/11 03:35:13;;;;;;;29.90;21.23;;;;;;;;;;5052263;28;20402;-78
2023/09/11 03:37:39;;;;;;;32.20;22.10;;;;;;;;;;5034347;28;20033;-77
2023/09/11 03:40:13;;;;;;;30.33;21.40;;;;;;;;;;5052175;28;20029;-78
2023/09/11 03:42:39;;;;;;;31.77;23.05;;;;;;;;;;5052643;28;20017;-78
2023/09/11 03:45:07;;;;;;;31.80;23.02;;;;;;;;;;5052169;28;20402;-77
2023/09/11 03:47:34;;;;;;;30.92;23.85;;;;;;;;;;5034212;28;20467;-77
2023/09/11 03:50:01;;;;;;;28.63;23.05;;;;;;;;;;5052131;28;20031;-77
2023/09/11 03:52:27;;;;;;;34.80;23.85;;;;;;;;;;5052014;28;20021;-78
2023/09/11 03:54:53;;;;;;;36.63;24.63;;;;;;;;;;5051796;28;20055;-78
2023/09/11 03:57:19;;;;;;;29.88;23.98;;;;;;;;;;5052036;28;20029;-77
2023/09/11 03:59:45;;;;;;;26.88;21.90;;;;;;;;;;5052040;28;20033;-77
2023/09/11 04:02:11;;;;;;;25.90;21.98;;;;;;;;;;5052050;28;20036;-77
2023/09/11 04:04:38;;;;;;;33.50;23.05;;;;;;;;;;5052045;28;20029;-77
2023/09/11 04:07:04;;;;;;;27.70;22.38;;;;;;;;;;5052220;28;20032;-78
2023/09/11 04:09:30;;;;;;;31.75;23.42;;;;;;;;;;5051998;28;20031;-78
2023/09/11 04:11:57;;;;;;;28.42;23.35;;;;;;;;;;5052228;28;20040;-77
2023/09/11 04:14:23;;;;;;;31.33;24.30;;;;;;;;;;5052009;28;20112;-78
2023/09/11 04:16:49;;;;;;;30.38;23.58;;;;;;;;;;5051907;28;20163;-77
2023/09/11 04:19:15;;;;;;;31.88;23.75;;;;;;;;;;5051953;28;20137;-77
2023/09/11 04:21:41;;;;;;;30.60;23.63;;;;;;;;;;5051973;28;20029;-77
2023/09/11 04:24:12;;;;;;;30.92;24.08;;;;;;;;;;5051552;28;20017;-77
2023/09/11 04:26:40;;;;;;;30.13;23.33;;;;;;;;;;5051710;28;20323;-77
2023/09/11 04:29:06;;;;;;;27.73;24.55;;;;;;;;;;5033824;28;20029;-77
2023/09/11 04:31:32;;;;;;;34.38;24.70;;;;;;;;;;5051648;28;20017;-77
2023/09/11 04:33:58;;;;;;;29.40;23.35;;;;;;;;;;5033996;28;20108;-77
2023/09/11 04:36:24;;;;;;;36.03;24.02;;;;;;;;;;5034076;28;20087;-77
2023/09/11 04:38:50;;;;;;;25.58;22.83;;;;;;;;;;5035447;28;20021;-77
2023/09/11 04:41:16;;;;;;;29.17;23.48;;;;;;;;;;5017548;28;20406;-77
2023/09/11 04:43:43;;;;;;;29.52;22.27;;;;;;;;;;5035331;28;20429;-77
2023/09/11 04:46:09;;;;;;;28.95;23.17;;;;;;;;;;5035423;28;20029;-77
2023/09/11 04:48:36;;;;;;;30.42;23.83;;;;;;;;;;5035256;28;20043;-78
2023/09/11 04:51:02;;;;;;;30.67;23.88;;;;;;;;;;5035407;28;20017;-78
2023/09/11 04:53:28;;;;;;;33.25;24.17;;;;;;;;;;5035160;28;20482;-77
2023/09/11 04:55:54;;;;;;;29.33;23.50;;;;;;;;;;5034574;28;20053;-78
2023/09/11 04:58:20;;;;;;;27.20;23.08;;;;;;;;;;5034956;28;20071;-78
2023/09/11 05:00:46;;;;;;;31.52;22.23;;;;;;;;;;5035307;28;20033;-78
2023/09/11 05:03:12;;;;;;;28.35;22.25;;;;;;;;;;5035215;28;20090;-78
2023/09/11 05:05:41;;;;;;;36.95;23.77;;;;;;;;;;5034829;28;20688;-77
2023/09/11 05:08:09;;;;;;;32.85;24.05;;;;;;;;;;5035054;28;20021;-77
2023/09/11 05:10:45;;;;;;;31.45;22.88;;;;;;;;;;5034527;28;20025;-78
2023/09/11 05:13:12;;;;;;;31.88;22.92;;;;;;;;;;5034885;28;20029;-78
2023/09/11 05:15:38;;;;;;;27.95;22.00;;;;;;;;;;5034805;28;20018;-78
2023/09/11 05:18:04;;;;;;;31.02;23.30;;;;;;;;;;5034673;28;20510;-78
2023/09/11 05:20:30;;;;;;;30.88;23.10;;;;;;;;;;5034624;28;20049;-78
2023/09/11 05:22:56;;;;;;;30.23;24.23;;;;;;;;;;5034568;28;20399;-77
2023/09/11 05:25:23;;;;;;;30.05;23.20;;;;;;;;;;5034810;28;20018;-77
2023/09/11 05:27:49;;;;;;;36.10;24.23;;;;;;;;;;5033401;28;20028;-77
2023/09/11 05:30:15;;;;;;;32.85;23.02;;;;;;;;;;5033939;28;20037;-77
2023/09/11 05:32:41;;;;;;;33.08;22.42;;;;;;;;;;5033939;28;20022;-77
2023/09/11 05:35:08;;;;;;;32.47;22.92;;;;;;;;;;5032993;28;20423;-77
2023/09/11 05:37:34;;;;;;;32.95;23.90;;;;;;;;;;5033080;28;20033;-78
2023/09/11 05:40:02;;;;;;;31.45;23.60;;;;;;;;;;5033551;28;20375;-78
2023/09/11 05:42:28;;;;;;;32.30;22.77;;;;;;;;;;5034461;28;20021;-78
2023/09/11 05:44:55;;;;;;;27.40;22.38;;;;;;;;;;5034048;28;20079;-77
2023/09/11 05:47:21;;;;;;;29.23;22.30;;;;;;;;;;5034088;28;20533;-78
2023/09/11 05:49:47;;;;;;;31.48;22.40;;;;;;;;;;5034051;28;20037;-77
2023/09/11 05:52:13;;;;;;;26.30;21.58;;;;;;;;;;5033973;28;20105;-77
2023/09/11 05:54:41;;;;;;;29.52;21.95;;;;;;;;;;5033729;28;20042;-78
2023/09/11 05:57:07;;;;;;;27.90;22.20;;;;;;;;;;5033874;28;20105;-77
2023/09/11 05:59:33;;;;;;;27.85;22.38;;;;;;;;;;5033806;28;20075;-77
2023/09/11 06:01:59;;;;;;;31.48;21.27;;;;;;;;;;5033735;28;20034;-77
2023/09/11 06:04:25;;;;;;;32.60;23.15;;;;;;;;;;5033760;28;20029;-77
2023/09/11 06:06:51;;;;;;;33.58;23.30;;;;;;;;;;5033837;28;20367;-77
2023/09/11 06:09:17;;;;;;;30.63;23.15;;;;;;;;;;5033694;28;20037;-78
2023/09/11 06:11:43;;;;;;;26.38;21.10;;;;;;;;;;5033972;28;20462;-77
2023/09/11 06:14:09;;;;;;;29.42;22.08;;;;;;;;;;5033878;28;20032;-78
2023/09/11 06:16:35;;;;;;;29.52;22.42;;;;;;;;;;5033524;28;20025;-77
2023/09/11 06:19:01;;;;;;;31.30;22.45;;;;;;;;;;5033789;28;20037;-77
2023/09/11 06:21:28;;;;;;;27.80;22.35;;;;;;;;;;5033496;28;20455;-78
2023/09/11 06:23:54;;;;;;;29.42;22.65;;;;;;;;;;5033528;28;20097;-77
2023/09/11 06:26:20;;;;;;;27.90;22.60;;;;;;;;;;5033349;28;20029;-77
2023/09/11 06:28:46;;;;;;;30.35;22.27;;;;;;;;;;5033592;28;20372;-77
2023/09/11 06:31:12;;;;;;;32.35;22.90;;;;;;;;;;5033315;28;20030;-77
2023/09/11 06:33:38;;;;;;;27.80;22.23;;;;;;;;;;5033289;28;20021;-77
2023/09/11 06:36:04;;;;;;;29.80;21.63;;;;;;;;;;5033458;28;20025;-77
2023/09/11 06:38:36;;;;;;;25.25;21.73;;;;;;;;;;5033674;28;20029;-78
2023/09/11 06:41:03;;;;;;;25.73;21.98;;;;;;;;;;5033288;28;20123;-78
2023/09/11 06:43:29;;;;;;;33.10;22.77;;;;;;;;;;5033057;28;20498;-78
2023/09/11 06:45:56;;;;;;;29.25;23.40;;;;;;;;;;5032932;28;20025;-78
2023/09/11 06:48:22;;;;;;;26.98;22.88;;;;;;;;;;5033300;28;20040;-77
2023/09/11 06:50:48;;;;;;;29.75;22.52;;;;;;;;;;5033265;28;20028;-77
2023/09/11 06:53:14;;;;;;;27.40;21.50;;;;;;;;;;5032832;28;20116;-78
2023/09/11 06:55:46;;;;;;;30.05;22.35;;;;;;;;;;5032647;28;20037;-77
2023/09/11 06:58:13;;;;;;;33.78;23.75;;;;;;;;;;5032576;28;20519;-77
2023/09/11 07:00:39;;;;;;;26.90;21.48;;;;;;;;;;5033184;28;20468;-78
2023/09/11 07:03:05;;;;;;;35.67;22.98;;;;;;;;;;5032903;28;20049;-77
2023/09/11 07:05:31;;;;;;;26.90;21.25;;;;;;;;;;5032866;28;20037;-78
2023/09/11 07:07:57;;;;;;;29.55;21.38;;;;;;;;;;5032797;28;20464;-78
2023/09/11 07:10:23;;;;;;;29.35;21.17;;;;;;;;;;5032568;28;20022;-77
2023/09/11 07:12:49;;;;;;;24.92;19.58;;;;;;;;;;5032774;28;20029;-78
2023/09/11 07:15:17;;;;;;;26.35;19.95;;;;;;;;;;5033684;28;20033;-78
2023/09/11 07:17:44;;;;;;;23.83;19.38;;;;;;;;;;5033713;28;20037;-78
2023/09/11 07:20:12;;;;;;;23.92;18.98;;;;;;;;;;5035756;28;20018;-79
2023/09/11 07:22:38;;;;;;;24.10;19.13;;;;;;;;;;5053683;28;20018;-78
2023/09/11 07:25:11;;;;;;;26.65;19.77;;;;;;;;;;5052527;28;20056;-76
2023/09/11 07:27:37;;;;;;;23.40;18.10;;;;;;;;;;5052676;28;20041;-78
2023/09/11 07:30:06;;;;;;;22.98;18.23;;;;;;;;;;5052379;28;20033;-77
2023/09/11 07:32:32;;;;;;;23.33;17.83;;;;;;;;;;5052514;28;20025;-78
2023/09/11 07:34:58;;;;;;;28.70;17.88;;;;;;;;;;5052259;28;20025;-78
2023/09/11 07:37:24;;;;;;;22.42;18.27;;;;;;;;;;5052392;28;20020;-78
2023/09/11 07:39:50;;;;;;;21.77;17.50;;;;;;;;;;5052244;28;20021;-78
2023/09/11 07:42:16;;;;;;;20.38;17.55;;;;;;;;;;5052496;28;20451;-78
2023/09/11 07:44:45;;;;;;;19.15;17.02;;;;;;;;;;5052233;28;20104;-78
2023/09/11 07:47:12;;;;;;;20.05;17.05;;;;;;;;;;5052116;28;20052;-78
2023/09/11 07:49:38;;;;;;;18.85;16.80;;;;;;;;;;5052461;28;20048;-78
2023/09/11 07:52:04;;;;;;;19.55;17.35;;;;;;;;;;5052275;28;20129;-78
2023/09/11 07:54:30;;;;;;;23.08;17.60;;;;;;;;;;5036588;28;20049;-78
2023/09/11 07:56:56;;;;;;;22.27;18.05;;;;;;;;;;5032289;28;20083;-78
2023/09/11 07:59:22;;;;;;;20.75;17.67;;;;;;;;;;5032837;28;20556;-78
2023/09/11 08:01:48;;;;;;;21.50;17.13;;;;;;;;;;5032232;28;20025;-78
2023/09/11 08:04:14;;;;;;;22.98;18.00;;;;;;;;;;5032451;28;20029;-78
2023/09/11 08:06:41;;;;;;;22.85;18.15;;;;;;;;;;5032937;28;20038;-78
2023/09/11 08:09:07;;;;;;;19.65;17.55;;;;;;;;;;5032199;28;20029;-78
2023/09/11 08:11:37;;;;;;;19.02;16.92;;;;;;;;;;5034792;28;20478;-78
2023/09/11 08:14:03;;;;;;;20.80;18.70;;;;;;;;;;5036940;28;20100;-78
2023/09/11 08:16:30;;;;;;;19.85;17.73;;;;;;;;;;5037833;28;20029;-78
2023/09/11 08:18:56;;;;;;;19.95;18.05;;;;;;;;;;5036723;28;20026;-78
2023/09/11 08:21:22;;;;;;;21.80;17.52;;;;;;;;;;5037242;28;20030;-79
2023/09/11 08:23:48;;;;;;;19.23;17.27;;;;;;;;;;5037519;28;20018;-78
2023/09/11 08:26:14;;;;;;;19.63;17.52;;;;;;;;;;5036308;28;20707;-78
2023/09/11 08:28:40;;;;;;;20.55;18.33;;;;;;;;;;5036885;28;20438;-79
2023/09/11 08:31:06;;;;;;;19.92;17.92;;;;;;;;;;5036462;28;20021;-78
2023/09/11 08:33:32;;;;;;;19.25;16.92;;;;;;;;;;5036126;28;20025;-78
2023/09/11 08:35:58;;;;;;;18.98;16.95;;;;;;;;;;5036649;28;20060;-78
2023/09/11 08:38:24;;;;;;;22.10;17.67;;;;;;;;;;5037069;28;20383;-79
2023/09/11 08:40:50;;;;;;;21.25;17.63;;;;;;;;;;5036653;28;20025;-79
2023/09/11 08:43:16;;;;;;;22.52;17.98;;;;;;;;;;5036626;28;20503;-79
2023/09/11 08:45:43;;;;;;;19.75;17.63;;;;;;;;;;5036546;28;20029;-79
2023/09/11 08:48:10;;;;;;;21.48;16.85;;;;;;;;;;5036724;28;20467;-79
2023/09/11 08:50:42;;;;;;;18.98;17.17;;;;;;;;;;5037259;28;20444;-79
2023/09/11 08:53:08;;;;;;;18.73;16.73;;;;;;;;;;5020296;28;20072;-79
2023/09/11 08:55:34;;;;;;;19.35;17.30;;;;;;;;;;5036736;28;20778;-79
2023/09/11 08:58:03;;;;;;;19.17;16.90;;;;;;;;;;5036575;28;20029;-79
2023/09/11 09:00:31;;;;;;;19.42;17.13;;;;;;;;;;5036481;28;20033;-79
2023/09/11 09:02:58;;;;;;;19.60;15.07;;;;;;;;;;5036937;28;20013;-79
2023/09/11 09:05:24;;;;;;;22.85;17.15;;;;;;;;;;5019064;28;20066;-79
2023/09/11 09:07:50;;;;;;;17.05;15.35;;;;;;;;;;5036634;28;20024;-79
2023/09/11 09:10:17;;;;;;;20.15;15.23;;;;;;;;;;5018706;28;20060;-79
2023/09/11 09:12:43;;;;;;;18.65;14.10;;;;;;;;;;5037838;28;20030;-79
2023/09/11 09:15:09;;;;;;;16.30;13.50;;;;;;;;;;5036511;28;20025;-79
2023/09/11 09:17:35;;;;;;;19.35;12.90;;;;;;;;;;5036707;28;20018;-79
2023/09/11 09:20:01;;;;;;;16.52;13.18;;;;;;;;;;5018611;28;20132;-79
2023/09/11 09:22:27;;;;;;;18.63;13.65;;;;;;;;;;5036264;28;20034;-78
2023/09/11 09:24:55;;;;;;;19.00;13.93;;;;;;;;;;5036754;28;20483;-79
2023/09/11 09:27:24;;;;;;;17.58;13.48;;;;;;;;;;5036974;28;20037;-79
2023/09/11 09:29:51;;;;;;;14.68;12.48;;;;;;;;;;5036874;28;20029;-79
2023/09/11 09:32:17;;;;;;;14.98;12.68;;;;;;;;;;5019067;28;20035;-79
2023/09/11 09:34:49;;;;;;;14.90;12.32;;;;;;;;;;5037058;28;20021;-79
2023/09/11 09:37:17;;;;;;;14.18;11.82;;;;;;;;;;5037202;28;20021;-79
2023/09/11 09:39:43;;;;;;;14.25;11.30;;;;;;;;;;5038023;28;20032;-79
2023/09/11 09:42:10;;;;;;;17.70;12.32;;;;;;;;;;5037678;28;20448;-80
2023/09/11 09:44:40;;;;;;;19.42;12.43;;;;;;;;;;5037972;28;20033;-79
2023/09/11 09:47:19;;;;;;;12.50;11.23;;;;;;;;;;5037455;28;20026;-79
2023/09/11 09:49:52;;;;;;;13.27;9.80;;;;;;;;;;5041056;28;20391;-79
2023/09/11 09:52:19;;;;;;;11.10;9.98;;;;;;;;;;5041209;28;20097;-79
2023/09/11 09:54:45;;;;;;;13.35;9.50;;;;;;;;;;5037215;28;20073;-80
2023/09/11 09:57:15;;;;;;;11.18;8.20;;;;;;;;;;5024181;28;20041;-79
2023/09/11 09:59:42;;;;;;;15.13;8.50;;;;;;;;;;5039287;28;20028;-79
2023/09/11 10:02:09;;;;;;;11.13;8.77;;;;;;;;;;5034820;28;20459;-79
2023/09/11 10:04:35;;;;;;;9.02;6.85;;;;;;;;;;5035322;28;20029;-79
2023/09/11 10:07:02;;;;;;;8.32;7.50;;;;;;;;;;5034873;28;20117;-79
2023/09/11 10:09:28;;;;;;;10.40;7.65;;;;;;;;;;5035853;28;20349;-79
2023/09/11 10:11:54;;;;;;;9.50;6.85;;;;;;;;;;5035087;28;20025;-79
2023/09/11 10:14:20;;;;;;;9.13;6.07;;;;;;;;;;5035492;28;20029;-79
2023/09/11 10:16:47;;;;;;;8.63;5.72;;;;;;;;;;5035034;28;20029;-79
2023/09/11 10:19:13;;;;;;;7.30;5.97;;;;;;;;;;5035027;28;20026;-79
2023/09/11 10:21:39;;;;;;;8.10;5.57;;;;;;;;;;5034757;28;20471;-79
2023/09/11 10:24:08;;;;;;;8.45;6.00;;;;;;;;;;5034928;28;20383;-79
2023/09/11 10:26:50;;;;;;;6.75;5.68;;;;;;;;;;5035380;28;20024;-79
2023/09/11 10:29:22;;;;;;;9.65;5.55;;;;;;;;;;5017343;28;20483;-79
2023/09/11 10:32:03;;;;;;;9.20;5.75;;;;;;;;;;5035688;28;20029;-79
2023/09/11 10:34:29;;;;;;;7.68;5.25;;;;;;;;;;5035141;28;20049;-79
2023/09/11 10:36:57;;;;;;;8.65;6.03;;;;;;;;;;5034710;28;20061;-79
2023/09/11 10:39:23;;;;;;;7.82;5.30;;;;;;;;;;5035743;28;20419;-79
2023/09/11 10:41:49;;;;;;;8.93;5.72;;;;;;;;;;5037387;28;20033;-79
2023/09/11 10:44:16;;;;;;;9.40;5.82;;;;;;;;;;5035277;28;20036;-79
2023/09/11 10:46:47;;;;;;;8.05;5.78;;;;;;;;;;5035863;28;20057;-79
2023/09/11 10:49:15;;;;;;;8.35;7.00;;;;;;;;;;5036146;28;20037;-79
2023/09/11 10:51:41;;;;;;;8.43;6.70;;;;;;;;;;5034778;28;20030;-79
2023/09/11 10:54:07;;;;;;;11.30;5.97;;;;;;;;;;5035613;28;20030;-79
2023/09/11 10:56:35;;;;;;;10.60;6.75;;;;;;;;;;5035239;28;20040;-79
2023/09/11 10:59:02;;;;;;;8.52;6.95;;;;;;;;;;5035423;28;20036;-79
2023/09/11 11:01:28;;;;;;;10.10;6.68;;;;;;;;;;5036351;28;20044;-79
2023/09/11 11:03:54;;;;;;;11.85;6.45;;;;;;;;;;5033005;28;20021;-76
2023/09/11 11:06:23;;;;;;;8.85;7.35;;;;;;;;;;5034876;28;20033;-78
2023/09/11 11:08:49;;;;;;;9.30;6.93;;;;;;;;;;5034378;28;20040;-78
2023/09/11 11:11:21;;;;;;;9.45;6.82;;;;;;;;;;5034892;28;20586;-79
2023/09/11 11:14:05;;;;;;;8.82;7.20;;;;;;;;;;5034723;28;20017;-79
2023/09/11 11:16:31;;;;;;;10.40;6.53;;;;;;;;;;5034796;28;20029;-78
2023/09/11 11:18:58;;;;;;;10.85;7.35;;;;;;;;;;5051725;28;20059;-76
2023/09/11 11:21:24;;;;;;;13.02;8.85;;;;;;;;;;5052223;28;20100;-76
2023/09/11 11:23:58;;;;;;;10.52;8.57;;;;;;;;;;5052350;28;20100;-76
2023/09/11 11:26:25;;;;;;;10.35;8.52;;;;;;;;;;5052619;28;20064;-77
2023/09/11 11:28:51;;;;;;;12.85;9.10;;;;;;;;;;5052359;28;20052;-77
2023/09/11 11:31:21;;;;;;;11.23;8.68;;;;;;;;;;5052437;28;20021;-77
2023/09/11 11:33:47;;;;;;;16.75;9.98;;;;;;;;;;5052475;28;20021;-76
2023/09/11 11:36:14;;;;;;;13.05;9.73;;;;;;;;;;5052311;28;20098;-76
2023/09/11 11:38:42;;;;;;;12.68;10.45;;;;;;;;;;5052509;28;20468;-77
2023/09/11 11:41:08;;;;;;;13.88;10.18;;;;;;;;;;5052136;28;20025;-77
2023/09/11 11:43:35;;;;;;;13.13;10.18;;;;;;;;;;5052294;28;20089;-76
2023/09/11 11:46:01;;;;;;;14.82;11.32;;;;;;;;;;5055446;28;20108;-77
2023/09/11 11:48:27;;;;;;;17.27;11.95;;;;;;;;;;5056187;28;20474;-77
2023/09/11 11:50:54;;;;;;;15.55;11.32;;;;;;;;;;5056112;28;20021;-77
2023/09/11 11:53:21;;;;;;;17.35;11.27;;;;;;;;;;5056134;28;20021;-76
2023/09/11 11:55:47;;;;;;;15.10;11.18;;;;;;;;;;5055925;28;20048;-76
2023/09/11 11:58:14;;;;;;;15.15;11.40;;;;;;;;;;5056050;28;20029;-76
2023/09/11 12:00:58;;;;;;;12.27;10.40;;;;;;;;;;5055952;28;20055;-76
2023/09/11 12:03:25;;;;;;;11.60;9.60;;;;;;;;;;5055684;28;20151;-77
2023/09/11 12:05:51;;;;;;;12.20;10.38;;;;;;;;;;5055958;28;20523;-77
2023/09/11 12:08:17;;;;;;;15.55;11.25;;;;;;;;;;5055935;28;20096;-77
2023/09/11 12:10:45;;;;;;;13.90;11.30;;;;;;;;;;5055948;28;20104;-76
2023/09/11 12:13:13;;;;;;;14.05;11.32;;;;;;;;;;5056143;28;20035;-76
2023/09/11 12:15:39;;;;;;;15.20;10.98;;;;;;;;;;5055838;28;20108;-77
2023/09/11 12:18:05;;;;;;;12.15;10.88;;;;;;;;;;5055665;28;20382;-77
2023/09/11 12:20:32;;;;;;;13.88;10.85;;;;;;;;;;5055603;28;20056;-77
2023/09/11 12:23:01;;;;;;;13.57;10.95;;;;;;;;;;5055641;28;20033;-77
2023/09/11 12:25:33;;;;;;;;;;;;;;;;;;5056310;28;20033;-77
2023/09/11 12:27:59;;;;;;;16.77;11.77;;;;;;;;;;5055593;28;19916;-77
2023/09/11 12:30:25;;;;;;;16.95;10.10;;;;;;;;;;5055412;28;20078;-76
2023/09/11 12:32:51;;;;;;;14.55;10.88;;;;;;;;;;5055357;28;20021;-76
2023/09/11 12:35:33;;;;;;;13.90;11.20;;;;;;;;;;5055748;28;20100;-77
2023/09/11 12:37:59;;;;;;;17.25;12.55;;;;;;;;;;5048192;28;20076;-77
2023/09/11 12:40:25;;;;;;;15.70;11.77;;;;;;;;;;5035619;28;20060;-77
2023/09/11 12:42:51;;;;;;;13.07;10.90;;;;;;;;;;5035758;28;20021;-75
2023/09/11 12:45:18;;;;;;;15.07;12.32;;;;;;;;;;5035591;28;20063;-75
2023/09/11 12:47:44;;;;;;;19.02;12.82;;;;;;;;;;5035663;28;20036;-76
2023/09/11 12:50:10;;;;;;;18.60;11.40;;;;;;;;;;5035359;28;20025;-76
2023/09/11 12:52:37;;;;;;;17.40;12.93;;;;;;;;;;5035247;28;20041;-75
2023/09/11 12:55:03;;;;;;;22.00;13.15;;;;;;;;;;5034627;28;20085;-76
2023/09/11 12:57:29;;;;;;;15.50;12.35;;;;;;;;;;5034034;28;20017;-76
2023/09/11 12:59:56;;;;;;;20.48;13.85;;;;;;;;;;5035041;28;20108;-76
2023/09/11 13:02:22;;;;;;;18.48;14.52;;;;;;;;;;5034948;28;20514;-76
2023/09/11 13:04:48;;;;;;;19.00;12.18;;;;;;;;;;5035509;28;20026;-77
2023/09/11 13:07:15;;;;;;;16.10;12.93;;;;;;;;;;5034718;28;20026;-77
2023/09/11 13:09:42;;;;;;;19.67;13.57;;;;;;;;;;5035323;28;20060;-78
2023/09/11 13:12:09;;;;;;;14.80;12.43;;;;;;;;;;5037562;28;20021;-79
2023/09/11 13:14:35;;;;;;;16.23;14.15;;;;;;;;;;5036499;28;20033;-79
2023/09/11 13:17:03;;;;;;;25.33;14.48;;;;;;;;;;5035421;28;20762;-78
2023/09/11 13:19:29;;;;;;;23.02;16.52;;;;;;;;;;5035649;28;20061;-78
2023/09/11 13:21:55;;;;;;;23.30;16.63;;;;;;;;;;5035521;28;20115;-78
2023/09/11 13:24:21;;;;;;;19.42;16.25;;;;;;;;;;5036633;28;20029;-78
2023/09/11 13:26:47;;;;;;;20.60;16.50;;;;;;;;;;5038874;28;20079;-79
2023/09/11 13:29:14;;;;;;;20.70;17.20;;;;;;;;;;5054987;28;20032;-78
2023/09/11 13:31:40;;;;;;;22.30;16.20;;;;;;;;;;5055461;28;20040;-78
2023/09/11 13:34:07;;;;;;;20.42;17.25;;;;;;;;;;5055214;28;20013;-78
2023/09/11 13:36:33;;;;;;;19.65;17.35;;;;;;;;;;5054965;28;20029;-78
2023/09/11 13:38:59;;;;;;;22.35;17.75;;;;;;;;;;5041532;28;20030;-78
2023/09/11 13:41:25;;;;;;;19.05;16.90;;;;;;;;;;5035728;28;20100;-78
2023/09/11 13:43:51;;;;;;;25.00;19.15;;;;;;;;;;5034881;28;20100;-78
2023/09/11 13:46:17;;;;;;;26.90;17.67;;;;;;;;;;5016779;28;20052;-78
2023/09/11 13:48:43;;;;;;;25.45;18.88;;;;;;;;;;5034943;28;20025;-78
2023/09/11 13:51:09;;;;;;;25.77;19.23;;;;;;;;;;5035119;28;20030;-78
2023/09/11 13:53:35;;;;;;;24.35;18.42;;;;;;;;;;5035464;28;20053;-78
2023/09/11 13:56:01;;;;;;;24.55;18.60;;;;;;;;;;5029060;28;20080;-77
2023/09/11 13:58:27;;;;;;;27.35;20.05;;;;;;;;;;5033924;28;20161;-76
2023/09/11 14:00:53;;;;;;;22.40;18.02;;;;;;;;;;5033827;28;20452;-76
2023/09/11 14:03:19;;;;;;;28.65;19.73;;;;;;;;;;5034018;28;20025;-75
2023/09/11 14:05:45;;;;;;;23.15;18.98;;;;;;;;;;5033831;28;20047;-75
2023/09/11 14:08:11;;;;;;;25.63;18.90;;;;;;;;;;5039963;28;20024;-75
2023/09/11 14:10:37;;;;;;;26.02;20.27;;;;;;;;;;5053527;28;20025;-75
2023/09/11 14:13:03;;;;;;;27.27;21.20;;;;;;;;;;5053538;28;20021;-75
2023/09/11 14:15:35;;;;;;;25.92;20.25;;;;;;;;;;5053332;28;20532;-75
2023/09/11 14:18:02;;;;;;;25.40;19.70;;;;;;;;;;5053472;28;20043;-75
2023/09/11 14:20:28;;;;;;;24.13;19.45;;;;;;;;;;5053768;28;20024;-75